Observations for NEWCASTLE, United Kingdom (EGNT)

EGNT 221420Z 26014KT 9999 SCT027 12/06 Q1033
EGNT 221350Z 25016KT 9999 SCT025 12/06 Q1033
EGNT 221320Z 26017KT 9999 SCT025 11/05 Q1034
EGNT 221220Z 27017KT 9999 FEW026 11/05 Q1034
EGNT 221150Z 27018KT 9999 FEW026 11/05 Q1035
EGNT 221120Z 26018KT 9999 FEW024 11/05 Q1035
EGNT 221050Z 26014KT 9999 FEW024 10/05 Q1035
EGNT 221020Z 27012KT CAVOK 10/05 Q1036  
EGNT 220950Z 26012KT CAVOK 10/04 Q1036  
EGNT 220920Z 26012KT CAVOK 09/04 Q1036  
EGNT 220820Z 25011KT CAVOK 07/03 Q1035  
EGNT 220750Z 26011KT CAVOK 06/03 Q1035  
EGNT 220720Z 26012KT CAVOK 06/03 Q1035  
EGNT 220650Z 26010KT CAVOK 05/03 Q1035  
EGNT 220620Z 26010KT CAVOK 05/03 Q1035  
EGNT 220550Z 26009KT 9999 FEW010 05/02 Q1035
EGNT 220520Z 27010KT CAVOK 05/03 Q1034  
EGNT 220450Z 27009KT CAVOK 05/03 Q1034  
EGNT 220420Z 26009KT CAVOK 05/03 Q1034  
EGNT 220350Z 25009KT CAVOK 05/03 Q1033  
EGNT 220250Z 27004KT CAVOK 04/02 Q1033  
EGNT 220220Z 28003KT CAVOK 05/03 Q1033  
EGNT 220150Z 26004KT CAVOK 05/02 Q1032  
EGNT 220050Z 28008KT CAVOK 06/03 Q1032  
EGNT 220020Z 27009KT CAVOK 06/03 Q1032  
EGNT 212350Z 27008KT CAVOK 06/03 Q1031  
EGNT 212250Z 27012KT CAVOK 06/03 Q1031  
EGNT 212220Z 26009KT CAVOK 05/03 Q1030  
EGNT 212150Z 27009KT CAVOK 06/03 Q1030  
EGNT 212120Z 27011KT CAVOK 06/03 Q1030  
EGNT 212050Z 27011KT CAVOK 07/03 Q1030  
EGNT 211950Z 28014KT 9999 FEW020 08/04 Q1029
EGNT 211920Z 27011KT 9999 FEW020 08/05 Q1028
EGNT 211850Z 27008KT 9999 FEW020 09/05 Q1028
EGNT 211820Z 28015KT 9999 FEW020 10/05 Q1028
EGNT 211750Z 28011KT 9999 FEW020 10/04 Q1027
EGNT 211720Z 28010KT 9999 FEW012 10/07 Q1026
EGNT 211650Z 26011KT 9999 FEW027 11/08 Q1026
EGNT 211620Z 27013KT 9999 FEW031 12/08 Q1025
EGNT 211550Z 28013KT 9999 FEW039 12/09 Q1025
EGNT 211520Z 27011KT 9999 FEW023 SCT035 13/09 Q1025 
EGNT 211450Z 28011KT 9999 FEW020 SCT035 13/09 Q1024 
EGNT 211420Z 29011KT 9999 SCT020 13/10 Q1024
EGNT 211350Z 27009KT 9999 FEW015 14/10 Q1023